Accueil
METAR-TAF:

METAR-TAF

Aéroports :

Aéroport de Milaga

Tripoli, Libye

latitude: 32-54N, longitude: 13-17E, altitude: 11 m

METAR: absent

Heure: 17:36 (15:36 UTC)

Prévision

Le bulletin a été fait il y a 4 heures et 36 minutes, à 11:00 UTC
Prévision valable du 21 à 12 UTC au 22 à 12 UTC
Vent 12 kt de ouest
Visibilité 10 km ou plus
Nuages épars à une hauteur de 3000 ft
Nuages épars à une hauteur de 8000 ft
Evoluant progressivement
du 21 à 20 UTC au 21 à 22 UTC
Vent 2 kt de direction variable
Evoluant progressivement
du 22 à 04 UTC au 22 à 06 UTC
Vent 10 kt de sud
Visibilité: 8000 m

TAF: HLLM 211100Z 2112/2212 27012KT 9999 SCT030 SCT080 BECMG 2120/2122 VRB02KT BECMG 2204/2206 18010KT 8000 NSC

Observations et prévisions météorologiques de plus de 4000 aéroports (messages METAR et TAF).

Les stations disponibles sont représentées par des disques jaunes et rouges sur la carte.

Passer la souris dessus pour voir le nom de la station.

Cliquer dessus pour voir les observations et prévisions météorologiques.

Pour changer de carte: cliquez sur les boutons verts avec une croix noire pour zoomer, sur le bouton vert avec un tiret pour effectuer un zoom arrière, ou sur les flèches vertes pour les cartes adjacentes.


METAR-TAF: